createdAt,value
2023-03-28T00:00:20.181Z,14.59
2023-03-28T00:00:50.176Z,14.53
2023-03-28T00:01:20.165Z,14.52
2023-03-28T00:01:50.165Z,14.52
2023-03-28T00:02:20.166Z,14.54
2023-03-28T00:02:50.234Z,14.58
2023-03-28T00:03:20.257Z,14.58
2023-03-28T00:03:50.209Z,14.59
2023-03-28T00:04:20.267Z,14.58
2023-03-28T00:04:50.177Z,14.57
2023-03-28T00:05:20.164Z,14.57
2023-03-28T00:05:50.210Z,14.59
2023-03-28T00:06:20.194Z,14.57
2023-03-28T00:06:50.164Z,14.56
2023-03-28T00:07:20.182Z,14.48
2023-03-28T00:07:50.163Z,14.46
2023-03-28T00:08:20.179Z,14.41
2023-03-28T00:08:50.163Z,14.37
2023-03-28T00:09:20.167Z,14.34
2023-03-28T00:09:50.170Z,14.33
2023-03-28T00:10:20.170Z,14.31
2023-03-28T00:10:50.170Z,14.27
2023-03-28T00:11:20.512Z,14.24
2023-03-28T00:11:50.174Z,14.21
2023-03-28T00:12:20.185Z,14.19
2023-03-28T00:12:50.165Z,14.21
2023-03-28T00:13:20.200Z,14.26
2023-03-28T00:13:50.173Z,14.32
2023-03-28T00:14:20.169Z,14.38
2023-03-28T00:14:50.168Z,14.41
2023-03-28T00:15:20.165Z,14.43
2023-03-28T00:15:50.224Z,14.4
2023-03-28T00:16:20.247Z,14.39
2023-03-28T00:16:50.170Z,14.37
2023-03-28T00:17:20.284Z,14.38
2023-03-28T00:17:50.190Z,14.39
2023-03-28T00:18:20.166Z,14.42
2023-03-28T00:18:50.169Z,14.45
2023-03-28T00:19:20.176Z,14.49
2023-03-28T00:19:50.166Z,14.53
2023-03-28T00:20:20.172Z,14.57
2023-03-28T00:20:50.167Z,14.55
2023-03-28T00:21:20.181Z,14.56
2023-03-28T00:21:50.188Z,14.57
2023-03-28T00:22:20.173Z,14.57
2023-03-28T00:22:50.171Z,14.6
2023-03-28T00:23:20.167Z,14.62
2023-03-28T00:23:50.168Z,14.6
2023-03-28T00:24:20.170Z,14.59
2023-03-28T00:24:50.179Z,14.58
2023-03-28T00:25:20.182Z,14.59
2023-03-28T00:25:50.167Z,14.59
2023-03-28T00:26:20.171Z,14.6
2023-03-28T00:26:50.179Z,14.6
2023-03-28T00:27:20.175Z,14.58
2023-03-28T00:27:50.172Z,14.6
2023-03-28T00:28:20.181Z,14.6
2023-03-28T00:28:50.205Z,14.65
2023-03-28T00:29:20.172Z,14.67
2023-03-28T00:29:50.172Z,14.69
2023-03-28T00:30:20.173Z,14.7
2023-03-28T00:30:50.184Z,14.69
2023-03-28T00:31:20.324Z,14.71
2023-03-28T00:31:50.234Z,14.74
2023-03-28T00:32:20.178Z,14.76
2023-03-28T00:32:50.233Z,14.78
2023-03-28T00:33:20.170Z,14.76
2023-03-28T00:33:50.174Z,14.73
2023-03-28T00:34:20.172Z,14.68
2023-03-28T00:34:50.172Z,14.62
2023-03-28T00:35:20.191Z,14.59
2023-03-28T00:35:50.201Z,14.57
2023-03-28T00:36:20.174Z,14.59
2023-03-28T00:36:50.177Z,14.64
2023-03-28T00:37:20.171Z,14.68
2023-03-28T00:37:50.171Z,14.73
2023-03-28T00:38:20.187Z,14.77
2023-03-28T00:38:50.186Z,14.74
2023-03-28T00:39:20.177Z,14.71
2023-03-28T00:39:50.177Z,14.7
2023-03-28T00:40:20.172Z,14.7
2023-03-28T00:40:50.181Z,14.71
2023-03-28T00:41:20.177Z,14.71
2023-03-28T00:41:50.172Z,14.66
2023-03-28T00:42:20.174Z,14.61
2023-03-28T00:42:50.175Z,14.55
2023-03-28T00:43:20.174Z,14.53
2023-03-28T00:43:50.178Z,14.51
2023-03-28T00:44:20.172Z,14.48
2023-03-28T00:44:50.178Z,14.46
2023-03-28T00:45:20.197Z,14.46
2023-03-28T00:45:59.198Z,14.48
2023-03-28T00:46:21.212Z,14.5
2023-03-28T00:46:50.211Z,14.5
2023-03-28T00:47:20.181Z,14.49
2023-03-28T00:47:50.212Z,14.49
2023-03-28T00:48:20.191Z,14.48
2023-03-28T00:48:50.173Z,14.47
2023-03-28T00:49:20.178Z,14.48
2023-03-28T00:49:50.175Z,14.5
2023-03-28T00:50:20.254Z,14.52
2023-03-28T00:50:50.178Z,14.54
2023-03-28T00:51:20.174Z,14.54
2023-03-28T00:51:50.176Z,14.5
2023-03-28T00:52:20.175Z,14.44
2023-03-28T00:52:50.180Z,14.39
2023-03-28T00:53:20.178Z,14.32
2023-03-28T00:53:50.187Z,14.25
2023-03-28T00:54:20.185Z,14.2
2023-03-28T00:54:50.191Z,14.19
2023-03-28T00:55:20.179Z,14.18
2023-03-28T00:55:50.185Z,14.23
2023-03-28T00:56:20.177Z,14.25
2023-03-28T00:56:50.234Z,14.28
2023-03-28T00:57:20.177Z,14.32
2023-03-28T00:57:50.180Z,14.38
2023-03-28T00:58:20.180Z,14.39
2023-03-28T00:58:50.181Z,14.38
2023-03-28T00:59:20.198Z,14.34
2023-03-28T00:59:50.176Z,14.31
2023-03-28T01:00:20.177Z,14.29
2023-03-28T01:00:50.179Z,14.28
2023-03-28T01:01:20.215Z,14.28
2023-03-28T01:01:50.245Z,14.22
2023-03-28T01:02:20.257Z,14.08
2023-03-28T01:02:50.234Z,13.99
2023-03-28T01:03:20.316Z,13.99
2023-03-28T01:03:50.210Z,13.98
2023-03-28T01:04:20.185Z,13.97
2023-03-28T01:04:50.186Z,13.96
2023-03-28T01:05:20.183Z,13.94
2023-03-28T01:05:50.177Z,13.96
2023-03-28T01:06:20.179Z,14
2023-03-28T01:06:50.173Z,14
2023-03-28T01:07:20.177Z,14.01
2023-03-28T01:07:50.180Z,13.99
2023-03-28T01:08:20.174Z,13.94
2023-03-28T01:08:50.182Z,13.89
2023-03-28T01:09:20.183Z,13.86
2023-03-28T01:09:50.177Z,13.85
2023-03-28T01:10:20.181Z,13.85
2023-03-28T01:10:50.174Z,13.81
2023-03-28T01:11:20.178Z,13.84
2023-03-28T01:11:50.176Z,13.81
2023-03-28T01:12:20.180Z,13.82
2023-03-28T01:12:50.180Z,13.84
2023-03-28T01:13:20.177Z,13.84
2023-03-28T01:13:50.172Z,13.83
2023-03-28T01:14:20.177Z,13.83
2023-03-28T01:14:50.176Z,13.82
2023-03-28T01:15:20.180Z,13.8
2023-03-28T01:15:50.225Z,13.81
2023-03-28T01:16:20.243Z,13.8
2023-03-28T01:16:50.181Z,13.78
2023-03-28T01:17:20.180Z,13.73
2023-03-28T01:17:50.232Z,13.7
2023-03-28T01:18:20.174Z,13.72
2023-03-28T01:18:50.180Z,13.73
2023-03-28T01:19:20.175Z,13.69
2023-03-28T01:19:50.175Z,13.65
2023-03-28T01:20:20.190Z,13.62
2023-03-28T01:20:50.177Z,13.62
2023-03-28T01:21:20.183Z,13.65
2023-03-28T01:21:50.174Z,13.63
2023-03-28T01:22:20.176Z,13.62
2023-03-28T01:22:56.523Z,13.6
2023-03-28T01:23:21.165Z,13.63
2023-03-28T01:23:50.178Z,13.65
2023-03-28T01:24:20.178Z,13.68
2023-03-28T01:24:50.174Z,13.69
2023-03-28T01:25:20.173Z,13.72
2023-03-28T01:25:50.176Z,13.72
2023-03-28T01:26:20.173Z,13.74
2023-03-28T01:26:50.179Z,13.74
2023-03-28T01:27:20.173Z,13.77
2023-03-28T01:27:50.173Z,13.77
2023-03-28T01:28:20.180Z,13.8
2023-03-28T01:28:50.174Z,13.82
2023-03-28T01:29:20.175Z,13.86
2023-03-28T01:29:50.174Z,13.85
2023-03-28T01:30:20.194Z,13.84
2023-03-28T01:30:50.177Z,13.84
2023-03-28T01:31:20.211Z,13.84
2023-03-28T01:31:50.228Z,13.84
2023-03-28T01:32:20.188Z,13.82
2023-03-28T01:32:50.201Z,13.81
2023-03-28T01:33:20.178Z,13.75
2023-03-28T01:33:50.188Z,13.72
2023-03-28T01:34:20.227Z,13.72
2023-03-28T01:34:50.178Z,13.71
2023-03-28T01:35:20.205Z,13.71
2023-03-28T01:35:50.197Z,13.73
2023-03-28T01:36:34.087Z,13.75
2023-03-28T01:36:51.222Z,13.76
2023-03-28T01:37:20.176Z,13.79
2023-03-28T01:37:50.176Z,13.81
2023-03-28T01:38:20.181Z,13.87
2023-03-28T01:38:50.186Z,13.92
2023-03-28T01:39:20.178Z,13.93
2023-03-28T01:39:50.173Z,13.94
2023-03-28T01:40:20.177Z,13.96
2023-03-28T01:40:50.180Z,13.94
2023-03-28T01:41:20.180Z,13.93
2023-03-28T01:41:50.176Z,13.91
2023-03-28T01:42:20.177Z,13.9
2023-03-28T01:42:50.180Z,13.89
2023-03-28T01:43:20.180Z,13.89
2023-03-28T01:43:50.181Z,13.92
2023-03-28T01:44:20.177Z,13.92
2023-03-28T01:44:50.192Z,13.93
2023-03-28T01:45:20.179Z,13.96
2023-03-28T01:45:50.239Z,13.94
2023-03-28T01:46:20.232Z,13.92
2023-03-28T01:46:50.196Z,13.92
2023-03-28T01:47:20.193Z,13.89
2023-03-28T01:47:50.203Z,13.87
2023-03-28T01:48:20.178Z,13.84
2023-03-28T01:48:50.178Z,13.82
2023-03-28T01:49:20.192Z,13.82
2023-03-28T01:49:50.182Z,13.84
2023-03-28T01:50:20.179Z,13.84
2023-03-28T01:50:50.183Z,13.82
2023-03-28T01:51:20.179Z,13.77
2023-03-28T01:51:50.176Z,13.74
2023-03-28T01:52:20.188Z,13.74
2023-03-28T01:52:50.184Z,13.76
2023-03-28T01:53:20.185Z,13.77
2023-03-28T01:53:50.179Z,13.79
2023-03-28T01:54:20.178Z,13.82
2023-03-28T01:54:50.181Z,13.82
2023-03-28T01:55:20.183Z,13.82
2023-03-28T01:55:50.177Z,13.82
2023-03-28T01:56:20.213Z,13.83
2023-03-28T01:56:50.219Z,13.84
2023-03-28T01:57:20.268Z,13.84
2023-03-28T01:57:50.226Z,13.81
2023-03-28T01:58:20.186Z,13.73
2023-03-28T01:58:50.182Z,13.73
2023-03-28T01:59:20.188Z,13.74
2023-03-28T01:59:50.186Z,13.72
2023-03-28T02:00:20.182Z,13.7
2023-03-28T02:00:50.209Z,13.71
2023-03-28T02:01:20.232Z,13.62
2023-03-28T02:01:50.202Z,13.55
2023-03-28T02:02:20.208Z,13.54
2023-03-28T02:02:50.244Z,13.52
2023-03-28T02:03:20.272Z,13.54
2023-03-28T02:03:50.186Z,13.53
2023-03-28T02:04:21.500Z,13.54
2023-03-28T02:04:50.182Z,13.53
2023-03-28T02:05:20.199Z,13.52
2023-03-28T02:05:50.178Z,13.52
2023-03-28T02:06:20.187Z,13.52
2023-03-28T02:06:50.183Z,13.49
2023-03-28T02:07:20.187Z,13.48
2023-03-28T02:07:50.183Z,13.48
2023-03-28T02:08:20.185Z,13.51
2023-03-28T02:08:50.185Z,13.53
2023-03-28T02:09:20.182Z,13.61
2023-03-28T02:09:50.182Z,13.68
2023-03-28T02:10:20.188Z,13.77
2023-03-28T02:10:50.192Z,13.83
2023-03-28T02:11:20.181Z,13.85
2023-03-28T02:11:50.187Z,13.81
2023-03-28T02:12:20.190Z,13.74
2023-03-28T02:12:50.184Z,13.68
2023-03-28T02:13:20.186Z,13.66
2023-03-28T02:13:50.189Z,13.67
2023-03-28T02:14:20.199Z,13.68
2023-03-28T02:14:50.185Z,13.68
2023-03-28T02:15:20.195Z,13.68
2023-03-28T02:15:50.191Z,13.69
2023-03-28T02:16:20.294Z,13.67
2023-03-28T02:16:50.356Z,13.63
2023-03-28T02:17:20.282Z,13.57
2023-03-28T02:17:50.246Z,13.51
2023-03-28T02:18:20.195Z,13.46
2023-03-28T02:18:50.197Z,13.46
2023-03-28T02:19:20.191Z,13.47
2023-03-28T02:19:50.199Z,13.5
2023-03-28T02:20:20.191Z,13.56
2023-03-28T02:20:50.193Z,13.6
2023-03-28T02:21:20.208Z,13.67
2023-03-28T02:21:50.200Z,13.71
2023-03-28T02:22:20.194Z,13.69
2023-03-28T02:22:50.194Z,13.64
2023-03-28T02:23:20.196Z,13.61
2023-03-28T02:23:50.197Z,13.62
2023-03-28T02:24:20.198Z,13.59
2023-03-28T02:24:50.198Z,13.55
2023-03-28T02:25:20.190Z,13.5
2023-03-28T02:25:50.191Z,13.44
2023-03-28T02:26:20.196Z,13.4
2023-03-28T02:26:50.191Z,13.35
2023-03-28T02:27:20.197Z,13.33
2023-03-28T02:27:50.193Z,13.34
2023-03-28T02:28:20.195Z,13.37
2023-03-28T02:28:50.192Z,13.4
2023-03-28T02:29:20.203Z,13.47
2023-03-28T02:29:50.216Z,13.55
2023-03-28T02:30:20.240Z,13.61
2023-03-28T02:30:50.196Z,13.66
2023-03-28T02:31:20.225Z,13.71
2023-03-28T02:31:50.260Z,13.74
2023-03-28T02:32:20.213Z,13.77
2023-03-28T02:32:50.243Z,13.77
2023-03-28T02:33:20.196Z,13.78
2023-03-28T02:33:50.195Z,13.78
2023-03-28T02:34:20.194Z,13.75
2023-03-28T02:34:50.196Z,13.76
2023-03-28T02:35:20.222Z,13.78
2023-03-28T02:35:50.219Z,13.79
2023-03-28T02:36:20.203Z,13.82
2023-03-28T02:36:50.201Z,13.84
2023-03-28T02:37:20.203Z,13.86
2023-03-28T02:37:50.201Z,13.91
2023-03-28T02:38:20.203Z,13.92
2023-03-28T02:38:50.198Z,13.88
2023-03-28T02:39:20.200Z,13.84
2023-03-28T02:39:50.205Z,13.77
2023-03-28T02:40:20.197Z,13.72
2023-03-28T02:40:50.199Z,13.67
2023-03-28T02:41:20.200Z,13.67
2023-03-28T02:41:50.197Z,13.68
2023-03-28T02:42:20.208Z,13.69
2023-03-28T02:42:50.200Z,13.7
2023-03-28T02:43:20.198Z,13.72
2023-03-28T02:43:50.198Z,13.74
2023-03-28T02:44:21.378Z,13.76
2023-03-28T02:44:50.205Z,13.76
2023-03-28T02:45:20.196Z,13.78
2023-03-28T02:45:50.337Z,13.76
2023-03-28T02:46:20.224Z,13.77
2023-03-28T02:46:50.208Z,13.78
2023-03-28T02:47:20.200Z,13.81
2023-03-28T02:47:50.236Z,13.83
2023-03-28T02:48:20.200Z,13.86
2023-03-28T02:48:50.202Z,13.86
2023-03-28T02:49:20.206Z,13.85
2023-03-28T02:49:50.975Z,13.81
2023-03-28T02:50:20.202Z,13.78
2023-03-28T02:50:50.208Z,13.78
2023-03-28T02:51:20.217Z,13.81
2023-03-28T02:51:50.207Z,13.84
2023-03-28T02:52:20.213Z,13.88
2023-03-28T02:52:50.203Z,13.88
2023-03-28T02:53:20.214Z,13.89
2023-03-28T02:53:50.206Z,13.91
2023-03-28T02:54:20.203Z,13.9
2023-03-28T02:54:50.209Z,13.88
2023-03-28T02:55:20.209Z,13.88
2023-03-28T02:55:50.208Z,13.92
2023-03-28T02:56:20.204Z,13.93
2023-03-28T02:56:50.244Z,13.95
2023-03-28T02:57:20.223Z,13.96
2023-03-28T02:57:50.205Z,13.95
2023-03-28T02:58:20.206Z,13.97
2023-03-28T02:58:50.206Z,13.98
2023-03-28T02:59:20.207Z,13.99
2023-03-28T02:59:50.215Z,13.97
2023-03-28T03:00:20.212Z,13.94
2023-03-28T03:00:50.234Z,13.93
2023-03-28T03:01:20.233Z,13.93
2023-03-28T03:01:50.279Z,13.95
2023-03-28T03:02:20.209Z,13.98
2023-03-28T03:02:50.321Z,14.03
2023-03-28T03:03:20.254Z,14.07
2023-03-28T03:03:50.300Z,14.08
2023-03-28T03:04:20.207Z,14.1
2023-03-28T03:04:50.207Z,14.14
2023-03-28T03:05:20.226Z,14.17
2023-03-28T03:05:50.211Z,14.2
2023-03-28T03:06:20.205Z,14.23
2023-03-28T03:06:50.210Z,14.23
2023-03-28T03:07:20.213Z,14.18
2023-03-28T03:07:50.221Z,14.12
2023-03-28T03:08:20.205Z,14.07
2023-03-28T03:08:50.214Z,14.06
2023-03-28T03:09:20.205Z,14.03
2023-03-28T03:09:50.207Z,14.04
2023-03-28T03:10:20.228Z,14.04
2023-03-28T03:10:50.210Z,14.07
2023-03-28T03:11:20.225Z,14.13
2023-03-28T03:11:50.247Z,14.18
2023-03-28T03:12:20.211Z,14.22
2023-03-28T03:12:50.210Z,14.25
2023-03-28T03:13:20.212Z,14.26
2023-03-28T03:13:50.220Z,14.26
2023-03-28T03:14:20.219Z,14.22
2023-03-28T03:14:50.215Z,14.19
2023-03-28T03:15:20.208Z,14.17
2023-03-28T03:15:50.370Z,14.16
2023-03-28T03:16:20.288Z,14.15
2023-03-28T03:16:50.217Z,14.18
2023-03-28T03:17:20.209Z,14.17
2023-03-28T03:17:50.224Z,14.12
2023-03-28T03:18:20.219Z,14.06
2023-03-28T03:18:50.207Z,14.06
2023-03-28T03:19:20.232Z,14.09
2023-03-28T03:19:50.210Z,14.14
2023-03-28T03:20:20.210Z,14.2
2023-03-28T03:20:50.226Z,14.26
2023-03-28T03:21:20.211Z,14.31
2023-03-28T03:21:50.246Z,14.37
2023-03-28T03:22:20.861Z,14.41
2023-03-28T03:22:50.246Z,14.41
2023-03-28T03:23:20.210Z,14.31
2023-03-28T03:23:50.208Z,14.21
2023-03-28T03:24:20.210Z,14.17
2023-03-28T03:24:50.212Z,14.16
2023-03-28T03:25:20.207Z,14.18
2023-03-28T03:25:50.211Z,14.22
2023-03-28T03:26:20.209Z,14.28
2023-03-28T03:26:50.214Z,14.32
2023-03-28T03:27:20.212Z,14.35
2023-03-28T03:27:50.206Z,14.31
2023-03-28T03:28:20.227Z,14.3
2023-03-28T03:28:50.212Z,14.32
2023-03-28T03:29:20.215Z,14.33
2023-03-28T03:29:50.238Z,14.34
2023-03-28T03:30:20.211Z,14.35
2023-03-28T03:30:50.213Z,14.39
2023-03-28T03:31:20.271Z,14.43
2023-03-28T03:31:50.234Z,14.45
2023-03-28T03:32:20.214Z,14.46
2023-03-28T03:32:50.261Z,14.48
2023-03-28T03:33:20.214Z,14.43
2023-03-28T03:33:50.212Z,14.33
2023-03-28T03:34:20.211Z,14.27
2023-03-28T03:34:50.266Z,14.25
2023-03-28T03:35:20.251Z,14.28
2023-03-28T03:35:50.249Z,14.27
2023-03-28T03:36:20.210Z,14.27
2023-03-28T03:36:50.210Z,14.27
2023-03-28T03:37:20.210Z,14.25
2023-03-28T03:37:50.218Z,14.24
2023-03-28T03:38:20.212Z,14.27
2023-03-28T03:38:50.208Z,14.28
2023-03-28T03:39:20.215Z,14.27
2023-03-28T03:39:50.208Z,14.28
2023-03-28T03:40:20.212Z,14.3
2023-03-28T03:40:50.219Z,14.33
2023-03-28T03:41:20.212Z,14.35
2023-03-28T03:41:50.218Z,14.35
2023-03-28T03:42:20.209Z,14.37
2023-03-28T03:42:50.214Z,14.37
2023-03-28T03:43:20.209Z,14.32
2023-03-28T03:43:50.217Z,14.32
2023-03-28T03:44:20.212Z,14.33
2023-03-28T03:44:50.215Z,14.36
2023-03-28T03:45:20.217Z,14.39
2023-03-28T03:45:50.250Z,14.41
2023-03-28T03:46:20.243Z,14.37
2023-03-28T03:46:50.213Z,14.35
2023-03-28T03:47:20.234Z,14.32
2023-03-28T03:47:50.234Z,14.33
2023-03-28T03:48:20.212Z,14.35
2023-03-28T03:48:50.558Z,14.39
2023-03-28T03:49:20.213Z,14.45
2023-03-28T03:49:50.210Z,14.47
2023-03-28T03:50:20.213Z,14.47
2023-03-28T03:50:50.214Z,14.47
2023-03-28T03:51:20.238Z,14.45
2023-03-28T03:51:50.214Z,14.45
2023-03-28T03:52:20.217Z,14.43
2023-03-28T03:52:50.215Z,14.42
2023-03-28T03:53:20.210Z,14.45
2023-03-28T03:53:50.228Z,14.48
2023-03-28T03:54:20.217Z,14.48
2023-03-28T03:54:50.211Z,14.52
2023-03-28T03:55:20.214Z,14.56
2023-03-28T03:55:50.209Z,14.59
2023-03-28T03:56:20.215Z,14.61
2023-03-28T03:56:50.243Z,14.64
2023-03-28T03:57:20.266Z,14.64
2023-03-28T03:57:50.210Z,14.6
2023-03-28T03:58:20.622Z,14.59
2023-03-28T03:58:50.229Z,14.53
2023-03-28T03:59:20.211Z,14.46
2023-03-28T03:59:50.216Z,14.42
2023-03-28T04:00:20.214Z,14.42
2023-03-28T04:00:50.217Z,14.45
2023-03-28T04:01:20.211Z,14.48
2023-03-28T04:01:50.246Z,14.51
2023-03-28T04:02:20.300Z,14.54
2023-03-28T04:02:50.244Z,14.56
2023-03-28T04:03:25.145Z,14.58
2023-03-28T04:03:51.200Z,14.62
2023-03-28T04:04:20.231Z,14.65
2023-03-28T04:04:50.214Z,14.66
2023-03-28T04:05:20.241Z,14.69
2023-03-28T04:05:50.216Z,14.68
2023-03-28T04:06:20.213Z,14.66
2023-03-28T04:06:50.230Z,14.67
2023-03-28T04:07:20.243Z,14.66
2023-03-28T04:07:50.217Z,14.67
2023-03-28T04:08:20.250Z,14.64
2023-03-28T04:08:50.211Z,14.62
2023-03-28T04:09:20.224Z,14.62
2023-03-28T04:09:50.223Z,14.65
2023-03-28T04:10:20.218Z,14.7
2023-03-28T04:10:50.256Z,14.77
2023-03-28T04:11:20.216Z,14.85
2023-03-28T04:11:50.211Z,14.93
2023-03-28T04:12:20.212Z,14.99
2023-03-28T04:12:50.211Z,15.06
2023-03-28T04:13:20.220Z,15.13
2023-03-28T04:13:50.213Z,15.2
2023-03-28T04:14:20.216Z,15.19
2023-03-28T04:14:50.220Z,15.16
2023-03-28T04:15:20.216Z,15.11
2023-03-28T04:15:50.316Z,15.03
2023-03-28T04:16:20.261Z,15
2023-03-28T04:16:50.216Z,14.93
2023-03-28T04:17:20.214Z,14.89
2023-03-28T04:17:50.379Z,14.84
2023-03-28T04:18:20.272Z,14.81
2023-03-28T04:18:50.215Z,14.81
2023-03-28T04:19:20.216Z,14.82
2023-03-28T04:19:50.216Z,14.84
2023-03-28T04:20:20.229Z,14.8
2023-03-28T04:20:50.215Z,14.73
2023-03-28T04:21:20.213Z,14.72
2023-03-28T04:21:50.218Z,14.74
2023-03-28T04:22:20.217Z,14.8
2023-03-28T04:22:50.220Z,14.84
2023-03-28T04:23:20.219Z,14.85
2023-03-28T04:23:50.221Z,14.83
2023-03-28T04:24:20.221Z,14.86
2023-03-28T04:24:50.225Z,14.9
2023-03-28T04:25:20.213Z,14.91
2023-03-28T04:25:50.221Z,14.89
2023-03-28T04:26:20.214Z,14.9
2023-03-28T04:26:50.280Z,14.92
2023-03-28T04:27:20.230Z,14.93
2023-03-28T04:27:50.215Z,14.98
2023-03-28T04:28:20.219Z,15.04
2023-03-28T04:28:50.220Z,15.13
2023-03-28T04:29:20.218Z,15.18
2023-03-28T04:29:50.228Z,15.21
2023-03-28T04:30:20.221Z,15.24
2023-03-28T04:30:50.226Z,15.17
2023-03-28T04:31:20.226Z,15.1
2023-03-28T04:31:50.320Z,14.99
2023-03-28T04:32:20.229Z,14.9
2023-03-28T04:32:50.243Z,14.89
2023-03-28T04:33:20.230Z,14.94
2023-03-28T04:33:50.226Z,15
2023-03-28T04:34:20.219Z,15.03
2023-03-28T04:34:50.221Z,15.09
2023-03-28T04:35:20.376Z,15.08
2023-03-28T04:35:50.238Z,15.09
2023-03-28T04:36:20.221Z,15.13
2023-03-28T04:36:50.224Z,15.15
2023-03-28T04:37:20.236Z,15.22
2023-03-28T04:37:50.227Z,15.27
2023-03-28T04:38:20.935Z,15.36
2023-03-28T04:38:50.222Z,15.47
2023-03-28T04:39:20.236Z,15.51
2023-03-28T04:39:50.230Z,15.48
2023-03-28T04:40:20.222Z,15.37
2023-03-28T04:40:50.225Z,15.3
2023-03-28T04:41:20.236Z,15.27
2023-03-28T04:41:50.289Z,15.22
2023-03-28T04:42:20.238Z,15.19
2023-03-28T04:42:50.229Z,15.22
2023-03-28T04:43:20.227Z,15.28
2023-03-28T04:43:50.231Z,15.29
2023-03-28T04:44:20.229Z,15.32
2023-03-28T04:44:50.228Z,15.4
2023-03-28T04:45:20.231Z,15.45
2023-03-28T04:45:50.255Z,15.51
2023-03-28T04:46:20.323Z,15.59
2023-03-28T04:46:50.234Z,15.66
2023-03-28T04:47:20.228Z,15.7
2023-03-28T04:47:50.277Z,15.77
2023-03-28T04:48:20.228Z,15.82
2023-03-28T04:48:56.794Z,15.85
2023-03-28T04:49:21.200Z,15.79
2023-03-28T04:49:50.225Z,15.67
2023-03-28T04:50:20.235Z,15.57
2023-03-28T04:50:50.233Z,15.43
2023-03-28T04:51:20.240Z,15.3
2023-03-28T04:51:50.233Z,15.18
2023-03-28T04:52:20.234Z,15.15
2023-03-28T04:52:50.229Z,15.18
2023-03-28T04:53:20.233Z,15.27
2023-03-28T04:53:50.232Z,15.36
2023-03-28T04:54:20.227Z,15.4
2023-03-28T04:54:50.226Z,15.41
2023-03-28T04:55:20.284Z,15.39
2023-03-28T04:55:50.335Z,15.32
2023-03-28T04:56:20.232Z,15.25
2023-03-28T04:56:50.366Z,15.22
2023-03-28T04:57:20.292Z,15.18
2023-03-28T04:57:50.230Z,15.11
2023-03-28T04:58:20.232Z,15.11
2023-03-28T04:58:50.229Z,15.14
2023-03-28T04:59:20.235Z,15.13
2023-03-28T04:59:50.255Z,15.11
2023-03-28T05:00:20.249Z,15.02
2023-03-28T05:00:50.231Z,14.94
2023-03-28T05:01:20.249Z,14.9
2023-03-28T05:01:50.292Z,14.85
2023-03-28T05:02:20.263Z,14.89
2023-03-28T05:02:50.318Z,14.97
2023-03-28T05:03:20.404Z,14.98
2023-03-28T05:03:50.277Z,14.96
2023-03-28T05:04:20.257Z,15
2023-03-28T05:04:50.229Z,15.04
2023-03-28T05:05:20.230Z,15.04
2023-03-28T05:05:50.234Z,15.04
2023-03-28T05:06:20.241Z,15.11
2023-03-28T05:06:50.261Z,15.23
2023-03-28T05:07:20.227Z,15.28
2023-03-28T05:07:50.228Z,15.26
2023-03-28T05:08:20.228Z,15.27
2023-03-28T05:08:50.227Z,15.24
2023-03-28T05:09:20.229Z,15.26
2023-03-28T05:09:50.230Z,15.29
2023-03-28T05:10:20.227Z,15.33
2023-03-28T05:10:50.229Z,15.39
2023-03-28T05:11:20.259Z,15.46
2023-03-28T05:11:50.225Z,15.58
2023-03-28T05:12:20.227Z,15.66
2023-03-28T05:12:50.227Z,15.61
2023-03-28T05:13:20.228Z,15.51
2023-03-28T05:13:50.237Z,15.46
2023-03-28T05:14:20.230Z,15.43
2023-03-28T05:14:50.244Z,15.48
2023-03-28T05:15:21.496Z,15.54
2023-03-28T05:15:51.281Z,15.56
2023-03-28T05:16:20.317Z,15.54
2023-03-28T05:16:50.245Z,15.61
2023-03-28T05:17:20.232Z,15.76
2023-03-28T05:17:50.356Z,15.96
2023-03-28T05:18:20.231Z,16.08
2023-03-28T05:18:50.231Z,16.13
2023-03-28T05:19:20.232Z,16.22
2023-03-28T05:19:50.239Z,16.29
2023-03-28T05:20:20.232Z,16.33
2023-03-28T05:20:50.230Z,16.39
2023-03-28T05:21:20.229Z,16.42
2023-03-28T05:21:50.228Z,16.48
2023-03-28T05:22:20.227Z,16.53
2023-03-28T05:22:50.229Z,16.59
2023-03-28T05:23:20.232Z,16.81
2023-03-28T05:23:52.117Z,17
2023-03-28T05:24:20.228Z,17.14
2023-03-28T05:24:50.229Z,17.17
2023-03-28T05:25:20.226Z,17.14
2023-03-28T05:25:50.226Z,17.17
2023-03-28T05:26:20.229Z,17.1
2023-03-28T05:26:50.230Z,16.94
2023-03-28T05:27:20.228Z,16.81
2023-03-28T05:27:50.229Z,16.69
2023-03-28T05:28:20.236Z,16.64
2023-03-28T05:28:50.230Z,16.6
2023-03-28T05:29:20.229Z,16.58
2023-03-28T05:29:50.233Z,16.6
2023-03-28T05:30:20.276Z,16.56
2023-03-28T05:30:50.239Z,16.5
2023-03-28T05:31:20.248Z,16.45
2023-03-28T05:31:50.250Z,16.43
2023-03-28T05:32:20.238Z,16.35
2023-03-28T05:32:50.264Z,16.33
2023-03-28T05:33:20.232Z,16.31
2023-03-28T05:33:50.233Z,16.29
2023-03-28T05:34:20.231Z,16.25
2023-03-28T05:34:50.230Z,16.24
2023-03-28T05:35:20.242Z,16.23
2023-03-28T05:35:50.316Z,16.13
2023-03-28T05:36:20.246Z,16.02
2023-03-28T05:36:50.231Z,15.93
2023-03-28T05:37:20.229Z,15.91
2023-03-28T05:37:50.231Z,15.91
2023-03-28T05:38:20.231Z,15.86
2023-03-28T05:38:50.232Z,15.81
2023-03-28T05:39:20.232Z,15.73
2023-03-28T05:39:50.231Z,15.67
2023-03-28T05:40:20.237Z,15.64
2023-03-28T05:40:50.231Z,15.6
2023-03-28T05:41:20.250Z,15.55
2023-03-28T05:41:50.245Z,15.52
2023-03-28T05:42:20.235Z,15.56
2023-03-28T05:42:50.250Z,15.59
2023-03-28T05:43:20.244Z,15.64
2023-03-28T05:43:50.234Z,15.65
2023-03-28T05:44:20.240Z,15.71
2023-03-28T05:44:50.243Z,15.69
2023-03-28T05:45:20.254Z,15.67
2023-03-28T05:45:50.264Z,15.68
2023-03-28T05:46:20.337Z,15.69
2023-03-28T05:46:50.238Z,15.66
2023-03-28T05:47:20.243Z,15.71
2023-03-28T05:47:50.266Z,15.85
2023-03-28T05:48:20.236Z,15.92
2023-03-28T05:48:50.237Z,16.03
2023-03-28T05:49:20.238Z,16.12
2023-03-28T05:49:50.235Z,16.17
2023-03-28T05:50:20.236Z,16.21
2023-03-28T05:50:50.237Z,16.34
2023-03-28T05:51:20.236Z,16.4
2023-03-28T05:51:50.238Z,16.47
2023-03-28T05:52:20.240Z,16.54
2023-03-28T05:52:50.241Z,16.66
2023-03-28T05:53:20.242Z,16.72
2023-03-28T05:53:50.246Z,16.71
2023-03-28T05:54:20.238Z,16.72
2023-03-28T05:54:51.992Z,16.72
2023-03-28T05:55:20.244Z,16.71
2023-03-28T05:55:50.261Z,16.7
2023-03-28T05:56:20.241Z,16.7
2023-03-28T05:56:50.277Z,16.8
2023-03-28T05:57:20.322Z,16.87
2023-03-28T05:57:50.236Z,17.06
2023-03-28T05:58:20.287Z,17.21
2023-03-28T05:58:50.237Z,17.4
2023-03-28T05:59:20.237Z,17.43
2023-03-28T05:59:50.247Z,17.44
2023-03-28T06:00:20.245Z,17.48
2023-03-28T06:00:50.238Z,17.5
2023-03-28T06:01:20.243Z,17.58
2023-03-28T06:01:50.243Z,17.68
2023-03-28T06:02:20.263Z,17.77
2023-03-28T06:02:50.264Z,17.8
2023-03-28T06:03:20.418Z,17.88
2023-03-28T06:03:50.316Z,17.96
2023-03-28T06:04:20.249Z,18.03
2023-03-28T06:04:50.240Z,18.19
2023-03-28T06:05:20.237Z,18.28
2023-03-28T06:05:50.238Z,18.48
2023-03-28T06:06:20.255Z,18.75
2023-03-28T06:06:50.242Z,19.03
2023-03-28T06:07:28.220Z,19.19
2023-03-28T06:07:51.300Z,19.31
2023-03-28T06:08:20.237Z,19.4
2023-03-28T06:08:50.293Z,19.47
2023-03-28T06:09:20.244Z,19.47
2023-03-28T06:09:50.239Z,19.41
2023-03-28T06:10:20.237Z,19.45
2023-03-28T06:10:50.239Z,19.44
2023-03-28T06:11:20.237Z,19.47
2023-03-28T06:11:50.240Z,19.55
2023-03-28T06:12:20.242Z,19.47
2023-03-28T06:12:50.240Z,19.27
2023-03-28T06:13:20.238Z,19.12
2023-03-28T06:13:50.248Z,19.04
2023-03-28T06:14:21.010Z,18.92
2023-03-28T06:14:50.253Z,18.82
2023-03-28T06:15:20.253Z,18.71
2023-03-28T06:15:50.238Z,18.72
2023-03-28T06:16:30.988Z,18.79
2023-03-28T06:16:51.329Z,18.9
2023-03-28T06:17:20.340Z,18.98
2023-03-28T06:17:50.323Z,19.03
2023-03-28T06:18:20.243Z,19.03
2023-03-28T06:18:50.240Z,19.02
2023-03-28T06:19:20.298Z,19.01
2023-03-28T06:19:50.272Z,19.05
2023-03-28T06:20:20.249Z,19.04
2023-03-28T06:20:50.240Z,19.08
2023-03-28T06:21:20.250Z,19.19
2023-03-28T06:21:50.249Z,19.26
2023-03-28T06:22:20.240Z,19.28
2023-03-28T06:22:50.253Z,19.35
2023-03-28T06:23:20.243Z,19.55
2023-03-28T06:23:50.251Z,19.77
2023-03-28T06:24:20.240Z,19.91
2023-03-28T06:24:50.244Z,20.1
2023-03-28T06:25:20.253Z,20.26
2023-03-28T06:25:50.240Z,20.52
2023-03-28T06:26:20.241Z,20.71
2023-03-28T06:26:50.241Z,20.83
2023-03-28T06:27:20.253Z,20.95
2023-03-28T06:27:50.241Z,21.06